createdAt,value
2023-05-21T00:03:42.404Z,32
2023-05-21T00:32:43.488Z,32
2023-05-21T01:01:46.638Z,31
2023-05-21T01:30:43.170Z,34
2023-05-21T01:59:51.149Z,32
2023-05-21T02:29:04.378Z,34
2023-05-21T02:58:11.458Z,32
2023-05-21T03:27:11.828Z,35
2023-05-21T03:56:22.716Z,35
2023-05-21T04:25:31.484Z,34
2023-05-21T04:54:45.761Z,36
2023-05-21T05:23:57.322Z,34
2023-05-21T05:52:57.175Z,40
2023-05-21T06:22:15.908Z,45
2023-05-21T06:51:25.654Z,46
2023-05-21T07:20:39.125Z,48
2023-05-21T07:49:50.093Z,47
2023-05-21T08:19:11.717Z,43
2023-05-21T08:48:21.256Z,45
2023-05-21T09:17:36.477Z,42
2023-05-21T09:46:44.188Z,39
2023-05-21T10:15:50.824Z,37
2023-05-21T10:44:43.673Z,37
2023-05-21T11:13:57.903Z,40
2023-05-21T11:43:13.386Z,43
2023-05-21T12:12:50.467Z,32
2023-05-21T12:41:29.734Z,31
2023-05-21T13:10:49.801Z,31
2023-05-21T13:39:51.994Z,32
2023-05-21T14:09:01.599Z,29
2023-05-21T14:38:07.204Z,26
2023-05-21T15:07:33.951Z,26
2023-05-21T15:36:59.670Z,25
2023-05-21T16:06:09.293Z,25
2023-05-21T16:35:23.446Z,28
2023-05-21T17:04:33.022Z,25
2023-05-21T17:33:43.036Z,23
2023-05-21T18:02:57.553Z,24
2023-05-21T18:31:58.990Z,23
2023-05-21T19:01:15.661Z,23
2023-05-21T19:30:21.402Z,25
2023-05-21T19:59:31.540Z,25
2023-05-21T20:28:42.921Z,26
2023-05-21T20:57:56.070Z,26
2023-05-21T21:26:53.124Z,28
2023-05-21T21:56:07.943Z,26
2023-05-21T22:25:26.210Z,25
2023-05-21T22:54:40.941Z,29
2023-05-21T23:24:02.426Z,31
2023-05-21T23:53:23.475Z,31
